createdAt,value
2022-12-20T05:47:38.667Z,6.75
2022-12-20T05:50:10.134Z,5.28
2022-12-20T05:52:43.055Z,4.97
2022-12-20T05:55:11.542Z,4.70
2022-12-20T05:57:39.444Z,6.95
2022-12-20T06:00:08.773Z,7.38
2022-12-20T06:02:38.292Z,6.88
2022-12-20T06:05:07.080Z,6.22
2022-12-20T06:07:34.967Z,5.15
2022-12-20T06:10:02.890Z,4.97
2022-12-20T06:12:30.776Z,8.57
2022-12-20T06:14:58.676Z,5.93
2022-12-20T06:17:26.670Z,5.22
2022-12-20T06:19:55.880Z,6.25
2022-12-20T06:22:24.020Z,5.82
2022-12-20T06:24:51.947Z,5.70
2022-12-20T06:27:21.506Z,6.28
2022-12-20T06:29:52.117Z,5.65
2022-12-20T06:32:20.076Z,6.75
2022-12-20T06:34:48.003Z,5.70
2022-12-20T06:37:17.214Z,4.95
2022-12-20T06:39:45.131Z,5.43
2022-12-20T06:42:13.098Z,6.22
2022-12-20T06:44:41.044Z,5.75
2022-12-20T06:47:08.935Z,5.10
2022-12-20T06:49:36.881Z,7.07
2022-12-20T06:52:05.274Z,5.15
2022-12-20T06:54:34.594Z,5.72
2022-12-20T06:57:02.586Z,6.00
2022-12-20T06:59:30.569Z,6.72
2022-12-20T07:01:58.681Z,6.75
2022-12-20T07:04:26.918Z,4.80
2022-12-20T07:06:54.938Z,7.00
2022-12-20T07:09:22.850Z,6.75
2022-12-20T07:11:52.393Z,7.43
2022-12-20T07:14:20.299Z,7.90
2022-12-20T07:16:48.245Z,6.68
2022-12-20T07:19:16.837Z,7.93
2022-12-20T07:21:45.269Z,7.57
2022-12-20T07:24:13.221Z,8.82
2022-12-20T07:26:41.325Z,9.02
2022-12-20T07:29:15.409Z,7.53
2022-12-20T07:31:44.233Z,7.05
2022-12-20T07:34:12.515Z,8.75
2022-12-20T07:36:40.452Z,7.60
2022-12-20T07:39:08.464Z,6.38
2022-12-20T07:41:36.427Z,6.28
2022-12-20T07:44:05.528Z,6.97
2022-12-20T15:02:42.905Z,3.80
2022-12-20T15:05:47.998Z,2.90
2022-12-20T15:08:19.376Z,2.97
2022-12-20T15:10:57.225Z,3.53
2022-12-20T15:13:30.772Z,2.53
2022-12-20T15:16:01.581Z,4.15
2022-12-20T15:18:31.213Z,4.55
2022-12-20T15:21:07.924Z,2.80
2022-12-20T15:23:36.216Z,2.45
2022-12-20T15:26:04.224Z,2.65
2022-12-20T15:28:32.221Z,3.97
2022-12-20T15:31:00.339Z,14.45
2022-12-20T15:33:32.350Z,15.10
2022-12-20T15:36:00.312Z,14.45
2022-12-20T15:41:21.269Z,17.17
2022-12-20T15:43:51.383Z,22.63
2022-12-20T15:46:19.436Z,16.67
2022-12-20T15:48:48.806Z,3.00
2022-12-20T15:51:22.809Z,3.70
2022-12-20T15:53:50.732Z,3.78
2022-12-20T15:56:21.680Z,3.47
2022-12-20T15:58:52.659Z,4.43
2022-12-20T16:01:25.096Z,5.65
2022-12-20T16:03:54.801Z,4.57
2022-12-20T16:06:23.178Z,4.38
2022-12-20T16:08:54.169Z,4.72
2022-12-20T16:11:24.164Z,4.03
2022-12-20T16:13:52.492Z,4.43
2022-12-20T16:16:22.190Z,3.55
2022-12-20T16:18:51.614Z,6.13
2022-12-20T16:21:22.862Z,4.95
2022-12-20T16:23:51.708Z,4.05
2022-12-20T16:26:21.503Z,3.83
2022-12-20T16:28:50.825Z,5.82
2022-12-20T16:31:24.923Z,3.85
2022-12-20T16:33:54.217Z,3.63
2022-12-20T16:36:24.779Z,8.77
2022-12-20T16:38:53.881Z,4.53
2022-12-20T16:41:24.185Z,3.72
2022-12-20T16:43:52.480Z,5.07
2022-12-20T16:46:22.017Z,3.08
2022-12-20T16:48:50.231Z,3.90
2022-12-20T16:51:28.353Z,3.85
2022-12-20T16:56:45.885Z,6.00
2022-12-20T16:59:22.861Z,4.13
2022-12-20T17:01:54.468Z,4.72
2022-12-20T17:04:23.191Z,4.28
2022-12-20T17:06:52.811Z,6.35
2022-12-20T17:12:14.743Z,5.53
2022-12-20T17:14:42.788Z,5.10
2022-12-20T17:17:10.986Z,5.10
2022-12-20T17:19:39.332Z,5.90
2022-12-20T17:22:24.054Z,6.22
2022-12-20T17:24:52.133Z,5.57
2022-12-20T17:27:20.204Z,4.30
2022-12-20T17:29:48.424Z,6.22
2022-12-20T17:32:21.800Z,7.45
2022-12-20T17:34:49.946Z,5.47
2022-12-20T17:37:19.348Z,4.50
2022-12-20T17:39:47.441Z,4.95
2022-12-20T17:42:15.531Z,5.95
2022-12-20T17:44:44.095Z,5.53
2022-12-20T17:47:14.764Z,4.70
2022-12-20T17:49:42.704Z,4.22
2022-12-20T17:52:14.450Z,4.38
2022-12-20T17:54:43.922Z,5.20
2022-12-20T17:57:15.607Z,6.57
2022-12-20T17:59:44.212Z,4.53
2022-12-20T18:02:21.982Z,4.85
2022-12-20T18:04:51.000Z,4.90
2022-12-20T18:07:19.114Z,4.70
2022-12-20T18:09:49.202Z,4.75
2022-12-20T18:12:17.916Z,3.28
2022-12-20T18:14:46.094Z,2.95
2022-12-20T18:17:14.222Z,3.58
2022-12-20T18:19:43.807Z,3.67
2022-12-20T18:22:11.767Z,6.18
2022-12-20T18:24:39.749Z,28.30
2022-12-20T18:27:09.148Z,17.58
2022-12-20T18:29:37.193Z,5.85
2022-12-20T18:32:05.749Z,2.63
2022-12-20T18:34:33.968Z,3.13
2022-12-20T18:37:02.001Z,5.00
2022-12-20T18:39:32.238Z,3.58
2022-12-20T18:42:00.203Z,4.20
2022-12-20T18:44:29.725Z,2.50
2022-12-20T18:46:57.934Z,4.32
2022-12-20T18:49:25.901Z,3.45
2022-12-20T18:51:53.809Z,3.83
2022-12-20T18:54:21.695Z,3.15
2022-12-20T18:56:50.443Z,3.20
2022-12-20T18:59:18.511Z,3.92
2022-12-20T19:01:48.003Z,2.80
2022-12-20T19:04:22.520Z,2.08
2022-12-20T19:06:52.402Z,3.53
2022-12-20T19:09:20.406Z,2.75
2022-12-20T19:11:54.577Z,3.72
2022-12-20T19:14:25.019Z,9.02
2022-12-20T19:16:54.819Z,6.30
2022-12-20T19:19:22.868Z,4.28
2022-12-20T19:21:50.861Z,2.97
2022-12-20T19:24:18.831Z,5.35
2022-12-20T19:26:46.800Z,4.40
2022-12-20T19:29:14.771Z,2.53
2022-12-20T19:31:42.974Z,9.38
2022-12-20T19:34:15.987Z,17.35
2022-12-20T19:36:45.676Z,35.80
2022-12-20T19:39:16.544Z,16.40
2022-12-20T19:41:54.855Z,11.98
2022-12-20T19:44:23.289Z,24.15
2022-12-20T19:46:51.374Z,31.58
2022-12-20T19:49:20.921Z,34.92
2022-12-20T19:51:50.445Z,17.08
2022-12-20T19:54:18.360Z,11.45
2022-12-20T19:56:46.351Z,7.80
2022-12-20T19:59:15.923Z,6.55
2022-12-20T20:01:44.095Z,15.80
2022-12-20T20:04:12.278Z,26.50
2022-12-20T20:06:41.688Z,26.75
2022-12-20T20:09:09.676Z,24.17
2022-12-20T20:11:37.693Z,19.17
2022-12-20T20:14:09.256Z,8.15
2022-12-20T20:16:37.472Z,2.55
2022-12-20T20:19:05.827Z,3.95
2022-12-20T20:21:36.286Z,3.90
2022-12-20T20:24:06.521Z,5.00
2022-12-20T20:26:34.433Z,4.03
2022-12-20T20:29:03.321Z,4.88
2022-12-20T20:31:31.661Z,5.72
2022-12-20T20:33:59.846Z,5.72
2022-12-20T20:36:28.035Z,5.00
2022-12-20T20:38:55.940Z,6.00
2022-12-20T20:41:25.812Z,5.30
2022-12-20T20:43:53.780Z,5.25
2022-12-20T20:46:21.760Z,7.35
2022-12-20T20:48:49.701Z,4.70
2022-12-20T20:51:17.772Z,5.53
2022-12-20T20:53:45.969Z,5.43
2022-12-20T20:56:13.906Z,6.82
2022-12-20T20:58:43.959Z,4.63
